Mayer, Minnesota
Current Conditions -  °F | °C
As of 9:34 AM on Thursday 30 Oct 2014 (Local Time) from KGYL Reporting Station
Broken Clouds Broken Clouds  
Wind Chill:   Ceiling: 5500
Heat Index:   Visibility: 10mi
Dew Point:   Wind: 0mph
Humidity: 86%   Direction: NA
Pressure: 30.05"   Gusts: NA
Location:  44.88°N, 93.89°W
Report Text: KGYL 301434Z AUTO 00000KT 10SM BKN055 05/03 A3005 RMK AO2 T00520031
Loading
Personal Weather Stations






























Interactive Weather Map
Tropical Storm Tracking
New forecast layout! Learn more

10-Day Weather Forecast

Advertisements
Track Severe Weather on mobile